sensor_id;sensor_type;location;lat;lon;timestamp;P1;durP1;ratioP1;P2;durP2;ratioP2
53903;SDS011;39812;52.430;16.936;2024-03-02T00:01:09;76.47;;;34.35;;
53903;SDS011;39812;52.430;16.936;2024-03-02T00:03:36;78.35;;;33.97;;
53903;SDS011;39812;52.430;16.936;2024-03-02T00:06:03;79.95;;;34.50;;
53903;SDS011;39812;52.430;16.936;2024-03-02T00:08:29;74.65;;;33.38;;
53903;SDS011;39812;52.430;16.936;2024-03-02T00:10:58;72.05;;;34.10;;
53903;SDS011;39812;52.430;16.936;2024-03-02T00:13:25;77.57;;;34.53;;
53903;SDS011;39812;52.430;16.936;2024-03-02T00:15:54;80.57;;;35.83;;
53903;SDS011;39812;52.430;16.936;2024-03-02T00:18:25;74.93;;;34.97;;
53903;SDS011;39812;52.430;16.936;2024-03-02T00:20:52;70.88;;;32.45;;
53903;SDS011;39812;52.430;16.936;2024-03-02T00:23:20;71.70;;;32.08;;
53903;SDS011;39812;52.430;16.936;2024-03-02T00:25:47;69.88;;;33.70;;
53903;SDS011;39812;52.430;16.936;2024-03-02T00:28:24;73.78;;;36.25;;
53903;SDS011;39812;52.430;16.936;2024-03-02T00:31:03;73.72;;;33.00;;
53903;SDS011;39812;52.430;16.936;2024-03-02T00:33:40;85.85;;;36.05;;
53903;SDS011;39812;52.430;16.936;2024-03-02T00:36:10;83.13;;;35.03;;
53903;SDS011;39812;52.430;16.936;2024-03-02T00:38:50;75.47;;;33.22;;
53903;SDS011;39812;52.430;16.936;2024-03-02T00:41:22;76.88;;;36.63;;
53903;SDS011;39812;52.430;16.936;2024-03-02T00:43:56;79.97;;;34.80;;
53903;SDS011;39812;52.430;16.936;2024-03-02T00:46:22;83.68;;;34.72;;
53903;SDS011;39812;52.430;16.936;2024-03-02T00:48:51;76.63;;;34.70;;
53903;SDS011;39812;52.430;16.936;2024-03-02T00:51:19;80.60;;;34.00;;
53903;SDS011;39812;52.430;16.936;2024-03-02T00:53:46;78.50;;;32.85;;
53903;SDS011;39812;52.430;16.936;2024-03-02T00:56:11;80.13;;;35.95;;
53903;SDS011;39812;52.430;16.936;2024-03-02T00:58:37;84.28;;;35.10;;
53903;SDS011;39812;52.430;16.936;2024-03-02T01:01:03;85.90;;;35.22;;
53903;SDS011;39812;52.430;16.936;2024-03-02T01:03:30;89.22;;;36.38;;
53903;SDS011;39812;52.430;16.936;2024-03-02T01:05:56;78.20;;;34.95;;
53903;SDS011;39812;52.430;16.936;2024-03-02T01:08:23;87.45;;;36.60;;
53903;SDS011;39812;52.430;16.936;2024-03-02T01:10:49;79.03;;;34.10;;
53903;SDS011;39812;52.430;16.936;2024-03-02T01:13:15;81.95;;;35.80;;
53903;SDS011;39812;52.430;16.936;2024-03-02T01:15:40;84.65;;;35.40;;
53903;SDS011;39812;52.430;16.936;2024-03-02T01:18:06;81.45;;;34.90;;
53903;SDS011;39812;52.430;16.936;2024-03-02T01:20:32;87.38;;;35.45;;
53903;SDS011;39812;52.430;16.936;2024-03-02T01:22:58;82.03;;;34.47;;
53903;SDS011;39812;52.430;16.936;2024-03-02T01:25:24;79.68;;;34.67;;
53903;SDS011;39812;52.430;16.936;2024-03-02T01:27:50;89.15;;;35.53;;
53903;SDS011;39812;52.430;16.936;2024-03-02T01:30:16;82.28;;;35.42;;
53903;SDS011;39812;52.430;16.936;2024-03-02T01:32:42;86.63;;;35.08;;
53903;SDS011;39812;52.430;16.936;2024-03-02T01:35:08;81.68;;;34.78;;
53903;SDS011;39812;52.430;16.936;2024-03-02T01:37:34;80.18;;;34.10;;
53903;SDS011;39812;52.430;16.936;2024-03-02T01:39:59;79.38;;;33.88;;
53903;SDS011;39812;52.430;16.936;2024-03-02T01:42:25;80.20;;;34.00;;
53903;SDS011;39812;52.430;16.936;2024-03-02T01:44:51;80.65;;;35.50;;
53903;SDS011;39812;52.430;16.936;2024-03-02T01:47:17;81.70;;;33.63;;
53903;SDS011;39812;52.430;16.936;2024-03-02T01:49:43;87.55;;;37.38;;
53903;SDS011;39812;52.430;16.936;2024-03-02T01:52:08;82.68;;;34.47;;
53903;SDS011;39812;52.430;16.936;2024-03-02T01:54:36;75.93;;;32.15;;
53903;SDS011;39812;52.430;16.936;2024-03-02T01:57:01;82.47;;;34.40;;
53903;SDS011;39812;52.430;16.936;2024-03-02T01:59:28;76.88;;;33.25;;
53903;SDS011;39812;52.430;16.936;2024-03-02T02:01:54;77.05;;;32.67;;
53903;SDS011;39812;52.430;16.936;2024-03-02T02:04:20;79.35;;;32.03;;
53903;SDS011;39812;52.430;16.936;2024-03-02T02:06:52;83.45;;;32.28;;
53903;SDS011;39812;52.430;16.936;2024-03-02T02:09:17;73.43;;;33.33;;
53903;SDS011;39812;52.430;16.936;2024-03-02T02:11:43;72.32;;;31.23;;
53903;SDS011;39812;52.430;16.936;2024-03-02T02:14:08;71.18;;;31.30;;
53903;SDS011;39812;52.430;16.936;2024-03-02T02:16:35;73.30;;;30.75;;
53903;SDS011;39812;52.430;16.936;2024-03-02T02:19:00;67.85;;;29.83;;
53903;SDS011;39812;52.430;16.936;2024-03-02T02:21:26;71.00;;;31.20;;
53903;SDS011;39812;52.430;16.936;2024-03-02T02:23:52;72.30;;;30.08;;
53903;SDS011;39812;52.430;16.936;2024-03-02T02:26:18;82.25;;;30.73;;
53903;SDS011;39812;52.430;16.936;2024-03-02T02:28:43;67.90;;;29.63;;
53903;SDS011;39812;52.430;16.936;2024-03-02T02:31:12;66.57;;;29.52;;
53903;SDS011;39812;52.430;16.936;2024-03-02T02:33:41;72.53;;;27.80;;
53903;SDS011;39812;52.430;16.936;2024-03-02T02:36:07;75.50;;;30.38;;
53903;SDS011;39812;52.430;16.936;2024-03-02T02:38:36;74.50;;;31.70;;
53903;SDS011;39812;52.430;16.936;2024-03-02T02:41:05;76.75;;;30.08;;
53903;SDS011;39812;52.430;16.936;2024-03-02T02:43:30;61.22;;;28.92;;
53903;SDS011;39812;52.430;16.936;2024-03-02T02:45:56;67.43;;;29.90;;
53903;SDS011;39812;52.430;16.936;2024-03-02T02:48:22;58.05;;;28.08;;
53903;SDS011;39812;52.430;16.936;2024-03-02T02:50:48;59.70;;;27.33;;
53903;SDS011;39812;52.430;16.936;2024-03-02T02:53:13;62.00;;;28.45;;
53903;SDS011;39812;52.430;16.936;2024-03-02T02:55:39;68.97;;;28.60;;
53903;SDS011;39812;52.430;16.936;2024-03-02T02:58:05;60.80;;;26.90;;
53903;SDS011;39812;52.430;16.936;2024-03-02T03:00:31;65.05;;;27.73;;
53903;SDS011;39812;52.430;16.936;2024-03-02T03:02:57;66.30;;;27.77;;
53903;SDS011;39812;52.430;16.936;2024-03-02T03:05:22;61.50;;;27.73;;
53903;SDS011;39812;52.430;16.936;2024-03-02T03:07:48;62.63;;;27.13;;
53903;SDS011;39812;52.430;16.936;2024-03-02T03:10:15;63.60;;;27.05;;
53903;SDS011;39812;52.430;16.936;2024-03-02T03:12:41;66.72;;;27.88;;
53903;SDS011;39812;52.430;16.936;2024-03-02T03:15:10;61.03;;;27.48;;
53903;SDS011;39812;52.430;16.936;2024-03-02T03:17:37;60.28;;;25.05;;
53903;SDS011;39812;52.430;16.936;2024-03-02T03:20:03;61.80;;;26.77;;
53903;SDS011;39812;52.430;16.936;2024-03-02T03:22:29;63.42;;;26.02;;
53903;SDS011;39812;52.430;16.936;2024-03-02T03:24:56;57.60;;;25.17;;
53903;SDS011;39812;52.430;16.936;2024-03-02T03:27:22;62.67;;;25.08;;
53903;SDS011;39812;52.430;16.936;2024-03-02T03:29:48;62.95;;;26.70;;
53903;SDS011;39812;52.430;16.936;2024-03-02T03:32:13;60.28;;;27.00;;
53903;SDS011;39812;52.430;16.936;2024-03-02T03:34:39;56.92;;;25.13;;
53903;SDS011;39812;52.430;16.936;2024-03-02T03:37:05;63.78;;;25.63;;
53903;SDS011;39812;52.430;16.936;2024-03-02T03:39:31;63.35;;;26.70;;
53903;SDS011;39812;52.430;16.936;2024-03-02T03:41:58;60.83;;;25.58;;
53903;SDS011;39812;52.430;16.936;2024-03-02T03:44:24;57.78;;;25.98;;
53903;SDS011;39812;52.430;16.936;2024-03-02T03:46:49;49.55;;;24.33;;
53903;SDS011;39812;52.430;16.936;2024-03-02T03:49:15;58.65;;;25.08;;
53903;SDS011;39812;52.430;16.936;2024-03-02T03:51:40;58.30;;;24.35;;
53903;SDS011;39812;52.430;16.936;2024-03-02T03:54:06;52.03;;;24.83;;
53903;SDS011;39812;52.430;16.936;2024-03-02T03:56:31;63.95;;;26.27;;
53903;SDS011;39812;52.430;16.936;2024-03-02T03:58:57;58.63;;;24.42;;
53903;SDS011;39812;52.430;16.936;2024-03-02T04:01:24;66.05;;;27.52;;
53903;SDS011;39812;52.430;16.936;2024-03-02T04:03:50;60.13;;;25.40;;
53903;SDS011;39812;52.430;16.936;2024-03-02T04:06:16;59.53;;;23.05;;
53903;SDS011;39812;52.430;16.936;2024-03-02T04:08:42;53.42;;;23.23;;
53903;SDS011;39812;52.430;16.936;2024-03-02T04:11:08;57.47;;;23.95;;
53903;SDS011;39812;52.430;16.936;2024-03-02T04:13:33;59.95;;;25.27;;
53903;SDS011;39812;52.430;16.936;2024-03-02T04:15:59;57.65;;;26.42;;
53903;SDS011;39812;52.430;16.936;2024-03-02T04:18:24;58.20;;;25.30;;
53903;SDS011;39812;52.430;16.936;2024-03-02T04:20:50;58.33;;;25.58;;
53903;SDS011;39812;52.430;16.936;2024-03-02T04:23:16;60.75;;;27.83;;
53903;SDS011;39812;52.430;16.936;2024-03-02T04:25:41;55.67;;;24.58;;
53903;SDS011;39812;52.430;16.936;2024-03-02T04:28:07;56.15;;;23.77;;
53903;SDS011;39812;52.430;16.936;2024-03-02T04:30:33;57.22;;;24.23;;
53903;SDS011;39812;52.430;16.936;2024-03-02T04:32:58;57.63;;;24.70;;
53903;SDS011;39812;52.430;16.936;2024-03-02T04:35:24;54.00;;;25.63;;
53903;SDS011;39812;52.430;16.936;2024-03-02T04:37:50;49.25;;;23.88;;
53903;SDS011;39812;52.430;16.936;2024-03-02T04:40:16;59.08;;;24.77;;
53903;SDS011;39812;52.430;16.936;2024-03-02T04:42:42;57.88;;;25.10;;
53903;SDS011;39812;52.430;16.936;2024-03-02T04:45:08;60.30;;;23.77;;
53903;SDS011;39812;52.430;16.936;2024-03-02T04:47:34;57.58;;;23.50;;
53903;SDS011;39812;52.430;16.936;2024-03-02T04:50:00;55.38;;;24.67;;
53903;SDS011;39812;52.430;16.936;2024-03-02T04:52:26;56.50;;;25.13;;
53903;SDS011;39812;52.430;16.936;2024-03-02T04:54:51;56.83;;;24.77;;
53903;SDS011;39812;52.430;16.936;2024-03-02T04:57:50;54.83;;;24.40;;
53903;SDS011;39812;52.430;16.936;2024-03-02T05:00:16;49.67;;;22.15;;
53903;SDS011;39812;52.430;16.936;2024-03-02T05:02:42;50.58;;;22.75;;
53903;SDS011;39812;52.430;16.936;2024-03-02T05:05:08;55.05;;;24.13;;
53903;SDS011;39812;52.430;16.936;2024-03-02T05:07:34;54.08;;;23.38;;
53903;SDS011;39812;52.430;16.936;2024-03-02T05:09:59;53.40;;;23.23;;
53903;SDS011;39812;52.430;16.936;2024-03-02T05:12:25;49.65;;;22.98;;
53903;SDS011;39812;52.430;16.936;2024-03-02T05:15:09;51.45;;;23.23;;
53903;SDS011;39812;52.430;16.936;2024-03-02T05:17:35;51.85;;;22.52;;
53903;SDS011;39812;52.430;16.936;2024-03-02T05:20:02;54.78;;;24.23;;
53903;SDS011;39812;52.430;16.936;2024-03-02T05:22:28;48.70;;;22.63;;
53903;SDS011;39812;52.430;16.936;2024-03-02T05:24:54;55.92;;;23.50;;
53903;SDS011;39812;52.430;16.936;2024-03-02T05:27:19;52.50;;;22.95;;
53903;SDS011;39812;52.430;16.936;2024-03-02T05:29:45;56.72;;;23.95;;
53903;SDS011;39812;52.430;16.936;2024-03-02T05:32:12;55.17;;;22.85;;
53903;SDS011;39812;52.430;16.936;2024-03-02T05:34:37;54.13;;;23.67;;
53903;SDS011;39812;52.430;16.936;2024-03-02T05:37:03;53.30;;;23.85;;
53903;SDS011;39812;52.430;16.936;2024-03-02T05:39:29;52.38;;;22.55;;
53903;SDS011;39812;52.430;16.936;2024-03-02T05:41:54;49.00;;;24.50;;
53903;SDS011;39812;52.430;16.936;2024-03-02T05:44:20;48.25;;;23.30;;
53903;SDS011;39812;52.430;16.936;2024-03-02T05:46:46;50.45;;;22.95;;
53903;SDS011;39812;52.430;16.936;2024-03-02T05:49:11;50.17;;;23.05;;
53903;SDS011;39812;52.430;16.936;2024-03-02T05:51:37;53.88;;;23.58;;
53903;SDS011;39812;52.430;16.936;2024-03-02T05:54:02;52.20;;;22.27;;
53903;SDS011;39812;52.430;16.936;2024-03-02T05:56:28;49.63;;;23.58;;
53903;SDS011;39812;52.430;16.936;2024-03-02T05:58:54;55.28;;;22.90;;
53903;SDS011;39812;52.430;16.936;2024-03-02T06:01:33;57.00;;;24.67;;
53903;SDS011;39812;52.430;16.936;2024-03-02T06:03:59;54.58;;;23.10;;
53903;SDS011;39812;52.430;16.936;2024-03-02T06:06:24;52.03;;;23.80;;
53903;SDS011;39812;52.430;16.936;2024-03-02T06:08:50;55.72;;;24.67;;
53903;SDS011;39812;52.430;16.936;2024-03-02T06:11:16;54.58;;;24.05;;
53903;SDS011;39812;52.430;16.936;2024-03-02T06:13:43;56.60;;;23.95;;
53903;SDS011;39812;52.430;16.936;2024-03-02T06:16:09;54.47;;;24.02;;
53903;SDS011;39812;52.430;16.936;2024-03-02T06:18:35;59.92;;;26.13;;
53903;SDS011;39812;52.430;16.936;2024-03-02T06:21:01;58.08;;;23.67;;
53903;SDS011;39812;52.430;16.936;2024-03-02T06:23:26;58.53;;;24.85;;
53903;SDS011;39812;52.430;16.936;2024-03-02T06:25:52;56.65;;;23.48;;
53903;SDS011;39812;52.430;16.936;2024-03-02T06:28:18;57.85;;;26.33;;
53903;SDS011;39812;52.430;16.936;2024-03-02T06:30:44;55.70;;;23.05;;
53903;SDS011;39812;52.430;16.936;2024-03-02T06:33:10;58.65;;;25.67;;
53903;SDS011;39812;52.430;16.936;2024-03-02T06:35:36;58.83;;;26.08;;
53903;SDS011;39812;52.430;16.936;2024-03-02T06:38:02;49.38;;;22.60;;
53903;SDS011;39812;52.430;16.936;2024-03-02T06:40:28;54.88;;;24.60;;
53903;SDS011;39812;52.430;16.936;2024-03-02T06:42:53;57.05;;;23.95;;
53903;SDS011;39812;52.430;16.936;2024-03-02T06:45:19;55.50;;;24.33;;
53903;SDS011;39812;52.430;16.936;2024-03-02T06:47:45;47.75;;;22.48;;
53903;SDS011;39812;52.430;16.936;2024-03-02T06:50:10;53.13;;;23.90;;
53903;SDS011;39812;52.430;16.936;2024-03-02T06:52:36;54.90;;;23.67;;
53903;SDS011;39812;52.430;16.936;2024-03-02T06:55:02;50.60;;;22.52;;
53903;SDS011;39812;52.430;16.936;2024-03-02T06:57:29;56.90;;;23.13;;
53903;SDS011;39812;52.430;16.936;2024-03-02T06:59:55;49.70;;;22.65;;
53903;SDS011;39812;52.430;16.936;2024-03-02T07:02:24;46.88;;;21.15;;
53903;SDS011;39812;52.430;16.936;2024-03-02T07:04:51;51.38;;;22.95;;
53903;SDS011;39812;52.430;16.936;2024-03-02T07:07:17;48.05;;;22.90;;
53903;SDS011;39812;52.430;16.936;2024-03-02T07:09:43;49.47;;;22.02;;
53903;SDS011;39812;52.430;16.936;2024-03-02T07:12:08;54.88;;;23.67;;
53903;SDS011;39812;52.430;16.936;2024-03-02T07:14:34;49.00;;;23.55;;
53903;SDS011;39812;52.430;16.936;2024-03-02T07:17:21;57.22;;;25.13;;
53903;SDS011;39812;52.430;16.936;2024-03-02T07:19:47;53.65;;;23.77;;
53903;SDS011;39812;52.430;16.936;2024-03-02T07:22:13;47.13;;;21.73;;
53903;SDS011;39812;52.430;16.936;2024-03-02T07:24:39;54.60;;;22.85;;
53903;SDS011;39812;52.430;16.936;2024-03-02T07:27:09;46.03;;;22.10;;
53903;SDS011;39812;52.430;16.936;2024-03-02T07:29:35;46.58;;;21.90;;
53903;SDS011;39812;52.430;16.936;2024-03-02T07:32:01;49.35;;;22.92;;
53903;SDS011;39812;52.430;16.936;2024-03-02T07:34:27;42.42;;;21.42;;
53903;SDS011;39812;52.430;16.936;2024-03-02T07:36:53;46.20;;;21.23;;
53903;SDS011;39812;52.430;16.936;2024-03-02T07:39:18;46.22;;;22.67;;
53903;SDS011;39812;52.430;16.936;2024-03-02T07:41:45;46.13;;;22.35;;
53903;SDS011;39812;52.430;16.936;2024-03-02T07:44:11;43.55;;;22.38;;
53903;SDS011;39812;52.430;16.936;2024-03-02T07:46:39;47.40;;;22.08;;
53903;SDS011;39812;52.430;16.936;2024-03-02T07:49:08;48.63;;;23.33;;
53903;SDS011;39812;52.430;16.936;2024-03-02T07:51:34;44.95;;;21.02;;
53903;SDS011;39812;52.430;16.936;2024-03-02T07:54:00;51.92;;;21.25;;
53903;SDS011;39812;52.430;16.936;2024-03-02T07:56:25;47.88;;;20.88;;
53903;SDS011;39812;52.430;16.936;2024-03-02T07:58:51;41.33;;;21.95;;
53903;SDS011;39812;52.430;16.936;2024-03-02T08:01:17;42.33;;;21.77;;
53903;SDS011;39812;52.430;16.936;2024-03-02T08:03:43;48.95;;;23.08;;
53903;SDS011;39812;52.430;16.936;2024-03-02T08:06:13;44.75;;;20.90;;
53903;SDS011;39812;52.430;16.936;2024-03-02T08:08:40;41.47;;;21.27;;
53903;SDS011;39812;52.430;16.936;2024-03-02T08:11:05;45.75;;;22.23;;
53903;SDS011;39812;52.430;16.936;2024-03-02T08:13:31;45.22;;;22.08;;
53903;SDS011;39812;52.430;16.936;2024-03-02T08:15:56;41.25;;;20.10;;
53903;SDS011;39812;52.430;16.936;2024-03-02T08:18:22;44.08;;;22.20;;
53903;SDS011;39812;52.430;16.936;2024-03-02T08:20:48;44.88;;;21.48;;
53903;SDS011;39812;52.430;16.936;2024-03-02T08:23:14;41.72;;;21.67;;
53903;SDS011;39812;52.430;16.936;2024-03-02T08:25:40;42.25;;;20.33;;
53903;SDS011;39812;52.430;16.936;2024-03-02T08:28:06;41.05;;;19.90;;
53903;SDS011;39812;52.430;16.936;2024-03-02T08:30:32;42.60;;;21.10;;
53903;SDS011;39812;52.430;16.936;2024-03-02T08:32:57;42.25;;;20.80;;
53903;SDS011;39812;52.430;16.936;2024-03-02T08:35:23;43.25;;;20.00;;
53903;SDS011;39812;52.430;16.936;2024-03-02T08:37:48;43.67;;;21.83;;
53903;SDS011;39812;52.430;16.936;2024-03-02T08:40:14;46.20;;;23.23;;
53903;SDS011;39812;52.430;16.936;2024-03-02T08:42:40;43.25;;;21.20;;
53903;SDS011;39812;52.430;16.936;2024-03-02T08:45:06;42.88;;;22.92;;
53903;SDS011;39812;52.430;16.936;2024-03-02T08:47:32;41.85;;;21.02;;
53903;SDS011;39812;52.430;16.936;2024-03-02T08:49:58;43.13;;;22.08;;
53903;SDS011;39812;52.430;16.936;2024-03-02T08:52:25;41.55;;;21.15;;
53903;SDS011;39812;52.430;16.936;2024-03-02T08:54:50;43.08;;;20.02;;
53903;SDS011;39812;52.430;16.936;2024-03-02T08:57:16;43.08;;;22.15;;
53903;SDS011;39812;52.430;16.936;2024-03-02T08:59:42;39.70;;;20.30;;
53903;SDS011;39812;52.430;16.936;2024-03-02T09:02:09;40.80;;;20.55;;
53903;SDS011;39812;52.430;16.936;2024-03-02T09:04:35;37.85;;;21.38;;
53903;SDS011;39812;52.430;16.936;2024-03-02T09:07:01;40.67;;;20.30;;
53903;SDS011;39812;52.430;16.936;2024-03-02T09:09:26;40.72;;;20.23;;
53903;SDS011;39812;52.430;16.936;2024-03-02T09:11:52;39.55;;;20.33;;
53903;SDS011;39812;52.430;16.936;2024-03-02T09:14:20;39.10;;;20.13;;
53903;SDS011;39812;52.430;16.936;2024-03-02T09:16:46;38.03;;;19.95;;
53903;SDS011;39812;52.430;16.936;2024-03-02T09:19:11;33.55;;;18.88;;
53903;SDS011;39812;52.430;16.936;2024-03-02T09:21:37;40.00;;;20.33;;
53903;SDS011;39812;52.430;16.936;2024-03-02T09:24:03;36.58;;;19.27;;
53903;SDS011;39812;52.430;16.936;2024-03-02T09:26:29;38.67;;;20.10;;
53903;SDS011;39812;52.430;16.936;2024-03-02T09:28:54;37.88;;;19.83;;
53903;SDS011;39812;52.430;16.936;2024-03-02T09:31:20;39.30;;;18.92;;
53903;SDS011;39812;52.430;16.936;2024-03-02T09:33:46;36.45;;;18.70;;
53903;SDS011;39812;52.430;16.936;2024-03-02T09:36:18;37.63;;;19.30;;
53903;SDS011;39812;52.430;16.936;2024-03-02T09:38:47;39.15;;;19.30;;
53903;SDS011;39812;52.430;16.936;2024-03-02T09:41:14;39.22;;;20.63;;
53903;SDS011;39812;52.430;16.936;2024-03-02T09:43:40;34.83;;;18.48;;
53903;SDS011;39812;52.430;16.936;2024-03-02T09:46:06;36.60;;;19.13;;
53903;SDS011;39812;52.430;16.936;2024-03-02T09:48:35;34.63;;;18.75;;
53903;SDS011;39812;52.430;16.936;2024-03-02T09:51:01;36.40;;;19.27;;
53903;SDS011;39812;52.430;16.936;2024-03-02T09:53:31;38.70;;;18.58;;
53903;SDS011;39812;52.430;16.936;2024-03-02T09:55:59;40.33;;;20.00;;
53903;SDS011;39812;52.430;16.936;2024-03-02T09:58:25;38.03;;;19.05;;
53903;SDS011;39812;52.430;16.936;2024-03-02T10:00:51;37.25;;;19.10;;
53903;SDS011;39812;52.430;16.936;2024-03-02T10:03:17;33.88;;;19.10;;
53903;SDS011;39812;52.430;16.936;2024-03-02T10:05:44;31.90;;;18.70;;
53903;SDS011;39812;52.430;16.936;2024-03-02T10:08:10;35.58;;;18.88;;
53903;SDS011;39812;52.430;16.936;2024-03-02T10:10:39;34.03;;;18.05;;
53903;SDS011;39812;52.430;16.936;2024-03-02T10:13:07;37.10;;;19.02;;
53903;SDS011;39812;52.430;16.936;2024-03-02T10:15:34;34.65;;;18.08;;
53903;SDS011;39812;52.430;16.936;2024-03-02T10:18:00;38.72;;;18.90;;
53903;SDS011;39812;52.430;16.936;2024-03-02T10:20:26;33.72;;;18.23;;
53903;SDS011;39812;52.430;16.936;2024-03-02T10:22:55;35.58;;;18.30;;
53903;SDS011;39812;52.430;16.936;2024-03-02T10:25:28;34.92;;;19.10;;
53903;SDS011;39812;52.430;16.936;2024-03-02T10:27:57;32.50;;;17.95;;
53903;SDS011;39812;52.430;16.936;2024-03-02T10:30:23;36.10;;;18.83;;
53903;SDS011;39812;52.430;16.936;2024-03-02T10:32:49;32.75;;;18.73;;
53903;SDS011;39812;52.430;16.936;2024-03-02T10:35:16;33.47;;;18.63;;
53903;SDS011;39812;52.430;16.936;2024-03-02T10:37:41;35.78;;;18.67;;
53903;SDS011;39812;52.430;16.936;2024-03-02T10:40:07;34.28;;;18.63;;
53903;SDS011;39812;52.430;16.936;2024-03-02T10:42:37;34.08;;;17.60;;
53903;SDS011;39812;52.430;16.936;2024-03-02T10:45:04;36.78;;;19.48;;
53903;SDS011;39812;52.430;16.936;2024-03-02T10:47:31;34.63;;;18.77;;
53903;SDS011;39812;52.430;16.936;2024-03-02T10:49:59;32.85;;;18.92;;
53903;SDS011;39812;52.430;16.936;2024-03-02T10:52:26;34.42;;;17.17;;
53903;SDS011;39812;52.430;16.936;2024-03-02T10:54:52;36.15;;;19.52;;
53903;SDS011;39812;52.430;16.936;2024-03-02T10:57:17;37.47;;;19.10;;
53903;SDS011;39812;52.430;16.936;2024-03-02T10:59:56;34.40;;;18.70;;
53903;SDS011;39812;52.430;16.936;2024-03-02T11:02:25;33.45;;;19.38;;
53903;SDS011;39812;52.430;16.936;2024-03-02T11:04:55;32.90;;;18.92;;
53903;SDS011;39812;52.430;16.936;2024-03-02T11:07:21;33.78;;;18.73;;
53903;SDS011;39812;52.430;16.936;2024-03-02T11:09:54;36.58;;;19.67;;
53903;SDS011;39812;52.430;16.936;2024-03-02T11:15:12;33.15;;;18.60;;
53903;SDS011;39812;52.430;16.936;2024-03-02T11:17:46;37.42;;;19.02;;
53903;SDS011;39812;52.430;16.936;2024-03-02T11:20:12;39.75;;;19.50;;
53903;SDS011;39812;52.430;16.936;2024-03-02T11:22:38;35.45;;;19.58;;
53903;SDS011;39812;52.430;16.936;2024-03-02T11:25:04;33.38;;;18.90;;
53903;SDS011;39812;52.430;16.936;2024-03-02T11:33:01;33.05;;;19.30;;
53903;SDS011;39812;52.430;16.936;2024-03-02T11:35:33;34.80;;;19.42;;
53903;SDS011;39812;52.430;16.936;2024-03-02T11:38:02;34.30;;;19.65;;
53903;SDS011;39812;52.430;16.936;2024-03-02T11:40:29;37.35;;;20.25;;
53903;SDS011;39812;52.430;16.936;2024-03-02T11:42:56;38.75;;;20.02;;
53903;SDS011;39812;52.430;16.936;2024-03-02T11:45:24;34.35;;;19.80;;
53903;SDS011;39812;52.430;16.936;2024-03-02T11:47:53;40.15;;;20.52;;
53903;SDS011;39812;52.430;16.936;2024-03-02T11:53:11;34.25;;;19.58;;
53903;SDS011;39812;52.430;16.936;2024-03-02T11:55:37;38.60;;;19.98;;
53903;SDS011;39812;52.430;16.936;2024-03-02T11:58:05;35.33;;;20.30;;
53903;SDS011;39812;52.430;16.936;2024-03-02T12:00:34;40.53;;;20.80;;
53903;SDS011;39812;52.430;16.936;2024-03-02T12:03:00;39.80;;;20.65;;
53903;SDS011;39812;52.430;16.936;2024-03-02T12:05:27;34.88;;;19.33;;
53903;SDS011;39812;52.430;16.936;2024-03-02T12:07:57;33.00;;;19.52;;
53903;SDS011;39812;52.430;16.936;2024-03-02T12:10:27;34.80;;;19.95;;
53903;SDS011;39812;52.430;16.936;2024-03-02T12:13:03;33.13;;;19.15;;
53903;SDS011;39812;52.430;16.936;2024-03-02T12:15:32;32.95;;;20.05;;
53903;SDS011;39812;52.430;16.936;2024-03-02T12:17:59;34.65;;;19.48;;
53903;SDS011;39812;52.430;16.936;2024-03-02T12:20:27;39.08;;;20.02;;
53903;SDS011;39812;52.430;16.936;2024-03-02T12:22:54;32.83;;;19.88;;
53903;SDS011;39812;52.430;16.936;2024-03-02T12:25:20;32.92;;;18.25;;
53903;SDS011;39812;52.430;16.936;2024-03-02T12:27:47;31.85;;;18.45;;
53903;SDS011;39812;52.430;16.936;2024-03-02T12:30:16;33.80;;;19.05;;
53903;SDS011;39812;52.430;16.936;2024-03-02T12:32:42;32.53;;;18.50;;
53903;SDS011;39812;52.430;16.936;2024-03-02T12:35:12;31.55;;;18.90;;
53903;SDS011;39812;52.430;16.936;2024-03-02T12:37:42;34.55;;;19.75;;
53903;SDS011;39812;52.430;16.936;2024-03-02T12:40:09;32.35;;;18.73;;
53903;SDS011;39812;52.430;16.936;2024-03-02T12:42:39;33.33;;;19.88;;
53903;SDS011;39812;52.430;16.936;2024-03-02T12:45:07;33.75;;;19.05;;
53903;SDS011;39812;52.430;16.936;2024-03-02T12:47:33;36.13;;;19.92;;
53903;SDS011;39812;52.430;16.936;2024-03-02T12:49:59;35.85;;;18.83;;
53903;SDS011;39812;52.430;16.936;2024-03-02T12:52:25;34.65;;;19.08;;
53903;SDS011;39812;52.430;16.936;2024-03-02T12:54:51;32.50;;;19.23;;
53903;SDS011;39812;52.430;16.936;2024-03-02T12:57:20;36.63;;;19.83;;
53903;SDS011;39812;52.430;16.936;2024-03-02T12:59:46;35.92;;;19.63;;
53903;SDS011;39812;52.430;16.936;2024-03-02T13:02:19;35.38;;;19.75;;
53903;SDS011;39812;52.430;16.936;2024-03-02T13:04:51;34.78;;;19.25;;
53903;SDS011;39812;52.430;16.936;2024-03-02T13:07:21;37.22;;;21.33;;
53903;SDS011;39812;52.430;16.936;2024-03-02T13:09:48;33.65;;;20.33;;
53903;SDS011;39812;52.430;16.936;2024-03-02T13:12:15;27.48;;;18.02;;
53903;SDS011;39812;52.430;16.936;2024-03-02T13:14:41;34.38;;;18.83;;
53903;SDS011;39812;52.430;16.936;2024-03-02T13:17:10;33.80;;;18.73;;
53903;SDS011;39812;52.430;16.936;2024-03-02T13:19:39;30.70;;;18.10;;
53903;SDS011;39812;52.430;16.936;2024-03-02T13:22:15;33.17;;;19.23;;
53903;SDS011;39812;52.430;16.936;2024-03-02T13:24:41;30.63;;;18.63;;
53903;SDS011;39812;52.430;16.936;2024-03-02T13:27:07;35.78;;;18.02;;
53903;SDS011;39812;52.430;16.936;2024-03-02T13:29:33;34.50;;;18.90;;
53903;SDS011;39812;52.430;16.936;2024-03-02T13:31:59;30.88;;;17.45;;
53903;SDS011;39812;52.430;16.936;2024-03-02T13:34:25;32.53;;;17.77;;
53903;SDS011;39812;52.430;16.936;2024-03-02T13:36:50;28.83;;;17.40;;
53903;SDS011;39812;52.430;16.936;2024-03-02T13:39:15;28.58;;;17.23;;
53903;SDS011;39812;52.430;16.936;2024-03-02T13:41:41;30.67;;;17.95;;
53903;SDS011;39812;52.430;16.936;2024-03-02T13:44:07;29.88;;;17.13;;
53903;SDS011;39812;52.430;16.936;2024-03-02T13:46:32;33.47;;;18.00;;
53903;SDS011;39812;52.430;16.936;2024-03-02T13:48:58;28.10;;;16.42;;
53903;SDS011;39812;52.430;16.936;2024-03-02T13:51:25;30.13;;;17.58;;
53903;SDS011;39812;52.430;16.936;2024-03-02T13:53:52;30.30;;;16.73;;
53903;SDS011;39812;52.430;16.936;2024-03-02T13:56:17;31.38;;;17.08;;
53903;SDS011;39812;52.430;16.936;2024-03-02T13:58:43;31.27;;;17.25;;
53903;SDS011;39812;52.430;16.936;2024-03-02T14:01:11;32.10;;;17.63;;
53903;SDS011;39812;52.430;16.936;2024-03-02T14:03:36;29.27;;;16.70;;
53903;SDS011;39812;52.430;16.936;2024-03-02T14:06:02;29.63;;;16.77;;
53903;SDS011;39812;52.430;16.936;2024-03-02T14:08:28;29.75;;;17.33;;
53903;SDS011;39812;52.430;16.936;2024-03-02T14:10:54;31.80;;;16.27;;
53903;SDS011;39812;52.430;16.936;2024-03-02T14:13:22;28.75;;;15.95;;
53903;SDS011;39812;52.430;16.936;2024-03-02T14:15:48;31.25;;;16.55;;
53903;SDS011;39812;52.430;16.936;2024-03-02T14:18:13;31.60;;;17.15;;